Time;durP1;ratioP1;P1;durP2;ratioP2;P2;SDS_P1;SDS_P2;PMS_P1;PMS_P2;Temp;Humidity;BMP_temperature;BMP_pressure;BME280_temperature;BME280_humidity;BME280_pressure;Samples;Min_cycle;Max_cycle;Signal;HPM_P1;HPM_P2
2023/05/01 00:02:13;;;;;;;10.40;6.00;;;;;;;;;;5013307;28;20456;-73
2023/05/01 00:04:42;;;;;;;8.90;5.07;;;;;;;;;;5013678;28;20440;-73
2023/05/01 00:07:09;;;;;;;7.37;5.73;;;;;;;;;;5013945;28;20884;-73
2023/05/01 00:09:36;;;;;;;6.00;4.80;;;;;;;;;;5013133;28;20811;-72
2023/05/01 00:12:04;;;;;;;6.53;5.90;;;;;;;;;;5013667;28;20485;-73
2023/05/01 00:14:31;;;;;;;7.60;5.00;;;;;;;;;;5013591;28;20795;-72
2023/05/01 00:16:58;;;;;;;8.67;5.30;;;;;;;;;;5013475;28;20443;-73
2023/05/01 00:19:25;;;;;;;6.10;5.10;;;;;;;;;;5013286;28;20431;-72
2023/05/01 00:21:54;;;;;;;6.30;5.20;;;;;;;;;;5013091;28;21019;-73
2023/05/01 00:24:21;;;;;;;10.73;4.80;;;;;;;;;;5013763;28;20451;-72
2023/05/01 00:26:48;;;;;;;9.60;5.77;;;;;;;;;;5013965;28;20448;-73
2023/05/01 00:29:16;;;;;;;8.70;5.60;;;;;;;;;;5013433;28;20439;-73
2023/05/01 00:31:44;;;;;;;12.03;5.63;;;;;;;;;;5014053;28;20467;-73
2023/05/01 00:34:11;;;;;;;12.60;5.57;;;;;;;;;;5017557;28;20452;-73
2023/05/01 00:36:38;;;;;;;6.83;4.80;;;;;;;;;;5017424;28;20435;-73
2023/05/01 00:39:07;;;;;;;8.03;4.70;;;;;;;;;;5017297;28;20474;-73
2023/05/01 00:41:35;;;;;;;12.83;6.07;;;;;;;;;;5017138;28;20480;-73
2023/05/01 00:44:02;;;;;;;7.47;5.17;;;;;;;;;;5016777;28;20550;-73
2023/05/01 00:46:29;;;;;;;12.93;4.60;;;;;;;;;;5017091;28;20471;-72
2023/05/01 00:48:57;;;;;;;10.40;4.90;;;;;;;;;;5016881;28;20450;-73
2023/05/01 00:51:26;;;;;;;11.13;5.37;;;;;;;;;;5017187;28;20510;-73
2023/05/01 00:53:53;;;;;;;7.67;4.60;;;;;;;;;;5016559;28;20439;-73
2023/05/01 00:56:21;;;;;;;8.17;5.60;;;;;;;;;;5016862;28;20450;-73
2023/05/01 00:58:52;;;;;;;6.07;5.30;;;;;;;;;;5016493;28;20447;-73
2023/05/01 01:01:20;;;;;;;9.33;5.30;;;;;;;;;;5017116;28;20428;-73
2023/05/01 01:03:47;;;;;;;6.90;4.90;;;;;;;;;;5016594;28;20466;-73
2023/05/01 01:06:16;;;;;;;6.20;5.20;;;;;;;;;;5016920;28;20445;-73
2023/05/01 01:08:46;;;;;;;8.20;4.87;;;;;;;;;;5016509;28;20447;-73
2023/05/01 01:11:18;;;;;;;7.30;5.30;;;;;;;;;;5016608;28;20439;-73
2023/05/01 01:13:53;;;;;;;6.03;4.87;;;;;;;;;;5016147;28;20443;-73
2023/05/01 01:16:24;;;;;;;10.90;6.10;;;;;;;;;;5017027;28;20427;-72
2023/05/01 01:18:53;;;;;;;7.10;4.70;;;;;;;;;;5016384;28;20435;-72
2023/05/01 01:21:24;;;;;;;7.83;4.73;;;;;;;;;;5016566;28;20800;-72
2023/05/01 01:24:04;;;;;;;8.30;5.50;;;;;;;;;;5016393;28;20429;-73
2023/05/01 01:26:41;;;;;;;7.30;5.40;;;;;;;;;;5016812;28;20426;-73
2023/05/01 01:29:22;;;;;;;9.13;5.27;;;;;;;;;;5015932;28;20435;-73
2023/05/01 01:31:57;;;;;;;6.60;4.63;;;;;;;;;;5016368;28;20470;-73
2023/05/01 01:34:28;;;;;;;6.40;4.93;;;;;;;;;;5015797;28;20908;-73
2023/05/01 01:37:01;;;;;;;8.70;5.17;;;;;;;;;;5016040;28;20428;-73
2023/05/01 01:39:30;;;;;;;9.83;6.77;;;;;;;;;;5016049;28;20428;-73
2023/05/01 01:42:00;;;;;;;6.87;4.70;;;;;;;;;;5015696;28;20447;-73
2023/05/01 01:44:31;;;;;;;12.30;5.10;;;;;;;;;;5014667;28;20444;-73
2023/05/01 01:46:59;;;;;;;9.73;5.27;;;;;;;;;;5016016;28;20522;-73
2023/05/01 01:49:28;;;;;;;5.90;4.83;;;;;;;;;;5015902;28;20802;-73
2023/05/01 01:51:57;;;;;;;6.30;4.30;;;;;;;;;;5015601;28;21005;-73
2023/05/01 01:54:39;;;;;;;7.40;5.37;;;;;;;;;;5015318;28;20455;-72
2023/05/01 01:57:08;;;;;;;5.03;4.50;;;;;;;;;;5015835;28;20774;-73
2023/05/01 01:59:35;;;;;;;9.07;4.90;;;;;;;;;;5015402;28;20952;-73
2023/05/01 02:02:03;;;;;;;9.25;4.93;;;;;;;;;;5016237;28;20483;-73
2023/05/01 02:04:32;;;;;;;6.83;4.70;;;;;;;;;;5015155;28;20207;-73
2023/05/01 02:07:01;;;;;;;8.10;5.07;;;;;;;;;;5016128;28;20958;-73
2023/05/01 02:09:30;;;;;;;4.23;3.87;;;;;;;;;;5015437;28;20435;-73
2023/05/01 02:11:58;;;;;;;7.20;4.80;;;;;;;;;;5015766;28;20495;-72
2023/05/01 02:14:26;;;;;;;7.80;4.63;;;;;;;;;;5015349;28;20786;-73
2023/05/01 02:16:54;;;;;;;7.57;4.77;;;;;;;;;;5015656;28;20447;-73
2023/05/01 02:19:21;;;;;;;6.80;3.97;;;;;;;;;;5015216;28;20446;-73
2023/05/01 02:21:51;;;;;;;5.50;4.33;;;;;;;;;;5014945;28;20946;-73
2023/05/01 02:24:21;;;;;;;8.30;5.13;;;;;;;;;;5014823;28;20924;-73
2023/05/01 02:26:50;;;;;;;9.63;5.27;;;;;;;;;;5015409;28;20435;-73
2023/05/01 02:29:17;;;;;;;8.70;6.38;;;;;;;;;;5015080;28;20440;-73
2023/05/01 02:31:44;;;;;;;8.10;4.80;;;;;;;;;;5015233;28;20198;-73
2023/05/01 02:34:11;;;;;;;6.77;5.03;;;;;;;;;;5014911;28;20446;-73
2023/05/01 02:36:39;;;;;;;6.57;5.18;;;;;;;;;;5015058;28;20435;-73
2023/05/01 02:39:07;;;;;;;6.55;4.88;;;;;;;;;;5014997;28;20663;-73
2023/05/01 02:41:35;;;;;;;8.70;4.30;;;;;;;;;;5014629;28;20652;-73
2023/05/01 02:44:04;;;;;;;8.23;5.20;;;;;;;;;;5015032;28;20451;-74
2023/05/01 02:46:32;;;;;;;6.93;4.75;;;;;;;;;;5015038;28;20791;-73
2023/05/01 02:49:01;;;;;;;6.40;4.22;;;;;;;;;;5014715;28;20198;-74
2023/05/01 02:51:28;;;;;;;7.20;5.20;;;;;;;;;;5014798;28;20380;-73
2023/05/01 02:53:56;;;;;;;8.50;5.17;;;;;;;;;;5013963;28;20979;-73
2023/05/01 02:56:25;;;;;;;6.90;4.72;;;;;;;;;;5014592;28;20459;-73
2023/05/01 02:58:53;;;;;;;13.03;5.20;;;;;;;;;;5014567;28;20254;-73
2023/05/01 03:01:20;;;;;;;7.43;4.60;;;;;;;;;;5014683;28;20789;-73
2023/05/01 03:03:47;;;;;;;9.70;5.90;;;;;;;;;;5014206;28;20669;-73
2023/05/01 03:06:14;;;;;;;9.57;5.70;;;;;;;;;;5014394;28;20443;-73
2023/05/01 03:08:42;;;;;;;8.93;4.90;;;;;;;;;;5014263;28;20517;-74
2023/05/01 03:11:09;;;;;;;9.10;5.23;;;;;;;;;;5013979;28;20447;-74
2023/05/01 03:13:38;;;;;;;8.60;5.55;;;;;;;;;;5014580;28;20566;-74
2023/05/01 03:16:06;;;;;;;7.67;5.63;;;;;;;;;;5013988;28;20199;-70
2023/05/01 03:18:33;;;;;;;7.10;5.25;;;;;;;;;;5014131;28;20447;-73
2023/05/01 03:21:00;;;;;;;12.85;5.45;;;;;;;;;;5014390;28;20195;-73
2023/05/01 03:23:27;;;;;;;7.97;4.82;;;;;;;;;;5014569;28;20211;-73
2023/05/01 03:25:56;;;;;;;12.32;5.93;;;;;;;;;;5014104;28;20196;-73
2023/05/01 03:28:23;;;;;;;9.50;4.90;;;;;;;;;;5014224;28;20200;-73
2023/05/01 03:30:52;;;;;;;10.38;5.15;;;;;;;;;;5012008;28;20233;-73
2023/05/01 03:33:19;;;;;;;9.35;4.75;;;;;;;;;;5013133;28;20212;-73
2023/05/01 03:35:46;;;;;;;7.03;4.63;;;;;;;;;;5013177;28;20203;-73
2023/05/01 03:38:13;;;;;;;11.23;5.10;;;;;;;;;;5012472;28;20725;-73
2023/05/01 03:40:41;;;;;;;6.45;4.85;;;;;;;;;;5012891;28;20792;-73
2023/05/01 03:43:08;;;;;;;8.57;5.63;;;;;;;;;;5013043;28;20507;-74
2023/05/01 03:45:35;;;;;;;6.63;4.50;;;;;;;;;;5012687;28;20200;-73
2023/05/01 03:48:04;;;;;;;6.57;5.20;;;;;;;;;;5012969;28;20829;-74
2023/05/01 03:50:31;;;;;;;10.40;4.93;;;;;;;;;;5012946;28;20549;-74
2023/05/01 03:52:58;;;;;;;9.13;5.45;;;;;;;;;;5013029;28;20493;-74
2023/05/01 03:55:26;;;;;;;7.82;5.22;;;;;;;;;;5013084;28;20622;-74
2023/05/01 03:57:53;;;;;;;7.10;5.53;;;;;;;;;;5012865;28;20228;-73
2023/05/01 04:00:20;;;;;;;6.13;5.13;;;;;;;;;;4998123;28;20452;-73
2023/05/01 04:02:47;;;;;;;9.60;5.35;;;;;;;;;;4993887;28;20207;-73
2023/05/01 04:05:17;;;;;;;11.23;6.43;;;;;;;;;;4994093;28;20193;-73
2023/05/01 04:07:44;;;;;;;12.63;5.53;;;;;;;;;;4996869;28;20211;-73
2023/05/01 04:10:11;;;;;;;11.60;4.78;;;;;;;;;;4998055;28;20464;-73
2023/05/01 04:12:38;;;;;;;8.93;5.40;;;;;;;;;;4997844;28;20315;-74
2023/05/01 04:15:06;;;;;;;5.17;4.67;;;;;;;;;;4997696;28;20440;-73
2023/05/01 04:17:33;;;;;;;7.50;4.93;;;;;;;;;;4996675;28;20472;-74
2023/05/01 04:20:00;;;;;;;5.60;4.63;;;;;;;;;;4997479;28;20561;-74
2023/05/01 04:22:29;;;;;;;11.53;5.17;;;;;;;;;;4997850;28;20451;-73
2023/05/01 04:24:56;;;;;;;6.60;4.37;;;;;;;;;;4997203;28;20993;-73
2023/05/01 04:27:23;;;;;;;9.20;4.33;;;;;;;;;;4998227;28;20458;-73
2023/05/01 04:29:51;;;;;;;7.05;5.13;;;;;;;;;;4997391;28;20474;-73
2023/05/01 04:32:18;;;;;;;6.23;4.73;;;;;;;;;;4997559;28;20263;-74
2023/05/01 04:34:45;;;;;;;9.10;5.10;;;;;;;;;;4997019;28;20448;-73
2023/05/01 04:37:13;;;;;;;9.83;5.57;;;;;;;;;;4996134;28;20483;-74
2023/05/01 04:39:41;;;;;;;5.30;4.37;;;;;;;;;;4997065;28;20771;-74
2023/05/01 04:42:08;;;;;;;9.93;4.93;;;;;;;;;;4997111;28;20460;-72
2023/05/01 04:44:36;;;;;;;8.97;5.10;;;;;;;;;;4997027;28;20451;-70
2023/05/01 04:47:03;;;;;;;7.87;4.73;;;;;;;;;;4996972;28;20960;-69
2023/05/01 04:49:31;;;;;;;7.05;4.45;;;;;;;;;;4997277;28;20538;-70
2023/05/01 04:51:58;;;;;;;6.40;4.30;;;;;;;;;;4997235;28;20287;-70
2023/05/01 04:54:26;;;;;;;9.00;5.00;;;;;;;;;;4997012;28;20221;-70
2023/05/01 04:56:55;;;;;;;9.80;4.73;;;;;;;;;;4995857;28;20992;-70
2023/05/01 04:59:22;;;;;;;9.00;4.85;;;;;;;;;;4996778;28;20448;-70
2023/05/01 05:01:49;;;;;;;6.67;4.47;;;;;;;;;;4997013;28;20199;-70
2023/05/01 05:04:16;;;;;;;5.50;4.80;;;;;;;;;;4997041;28;20452;-70
2023/05/01 05:06:44;;;;;;;4.80;4.30;;;;;;;;;;4996884;28;20440;-70
2023/05/01 05:09:11;;;;;;;10.10;4.07;;;;;;;;;;4997320;28;20448;-70
2023/05/01 05:11:39;;;;;;;8.70;4.97;;;;;;;;;;4996524;28;20459;-70
2023/05/01 05:14:07;;;;;;;7.60;5.27;;;;;;;;;;4996469;28;21011;-70
2023/05/01 05:16:35;;;;;;;6.07;4.75;;;;;;;;;;4995467;28;20527;-70
2023/05/01 05:19:02;;;;;;;8.87;5.50;;;;;;;;;;4995661;28;20199;-68
2023/05/01 05:21:30;;;;;;;6.20;5.20;;;;;;;;;;5002980;28;20546;-72
2023/05/01 05:23:57;;;;;;;8.60;6.03;;;;;;;;;;5015107;28;20983;-73
2023/05/01 05:26:25;;;;;;;12.37;5.40;;;;;;;;;;5015492;28;20454;-73
2023/05/01 05:28:53;;;;;;;11.00;5.17;;;;;;;;;;5015620;28;20527;-73
2023/05/01 05:31:22;;;;;;;10.90;5.53;;;;;;;;;;5015999;28;20451;-72
2023/05/01 05:33:49;;;;;;;5.47;4.93;;;;;;;;;;5015966;28;20474;-72
2023/05/01 05:36:16;;;;;;;6.97;4.97;;;;;;;;;;5014926;28;20444;-72
2023/05/01 05:38:44;;;;;;;6.70;5.03;;;;;;;;;;5015245;28;20832;-72
2023/05/01 05:41:11;;;;;;;10.30;4.50;;;;;;;;;;5015578;28;20542;-72
2023/05/01 05:43:38;;;;;;;8.37;6.70;;;;;;;;;;5015681;28;20934;-72
2023/05/01 05:46:05;;;;;;;7.70;4.57;;;;;;;;;;5015908;28;20809;-72
2023/05/01 05:48:34;;;;;;;7.17;5.43;;;;;;;;;;5015770;28;20894;-72
2023/05/01 05:51:01;;;;;;;4.78;4.38;;;;;;;;;;5015720;28;20454;-72
2023/05/01 05:53:28;;;;;;;10.30;8.40;;;;;;;;;;5015375;28;20216;-72
2023/05/01 05:55:56;;;;;;;6.63;5.00;;;;;;;;;;5014868;28;20896;-73
2023/05/01 05:58:23;;;;;;;8.50;5.47;;;;;;;;;;5014884;28;20446;-72
2023/05/01 06:00:51;;;;;;;6.60;5.00;;;;;;;;;;5015323;28;20471;-72
2023/05/01 06:03:19;;;;;;;7.20;4.60;;;;;;;;;;5015554;28;20457;-72
2023/05/01 06:05:47;;;;;;;5.80;5.30;;;;;;;;;;5015221;28;20542;-73
2023/05/01 06:08:15;;;;;;;13.93;5.27;;;;;;;;;;5015279;28;20457;-72
2023/05/01 06:10:43;;;;;;;6.93;5.13;;;;;;;;;;5015116;28;20450;-72
2023/05/01 06:13:11;;;;;;;11.37;5.10;;;;;;;;;;5015007;28;21013;-72
2023/05/01 06:15:38;;;;;;;10.00;5.77;;;;;;;;;;5015386;28;20530;-72
2023/05/01 06:18:05;;;;;;;8.07;5.33;;;;;;;;;;5013042;28;20443;-71
2023/05/01 06:20:32;;;;;;;7.17;5.27;;;;;;;;;;5014630;28;20445;-71
2023/05/01 06:23:01;;;;;;;8.80;5.30;;;;;;;;;;5014751;28;20452;-71
2023/05/01 06:25:28;;;;;;;9.57;5.10;;;;;;;;;;5015256;28;20795;-71
2023/05/01 06:27:56;;;;;;;9.50;5.30;;;;;;;;;;5014741;28;20490;-71
2023/05/01 06:30:23;;;;;;;10.10;5.10;;;;;;;;;;5014442;28;20446;-71
2023/05/01 06:32:50;;;;;;;7.27;4.77;;;;;;;;;;5014774;28;20448;-71
2023/05/01 06:35:17;;;;;;;11.57;5.87;;;;;;;;;;5014871;28;20481;-72
2023/05/01 06:37:45;;;;;;;8.57;5.20;;;;;;;;;;5014006;28;20511;-71
2023/05/01 06:40:13;;;;;;;5.60;5.10;;;;;;;;;;5013651;28;20527;-71
2023/05/01 06:42:41;;;;;;;9.03;5.83;;;;;;;;;;5014870;28;20442;-71
2023/05/01 06:45:08;;;;;;;9.20;5.10;;;;;;;;;;5014612;28;20455;-71
2023/05/01 06:47:35;;;;;;;5.50;5.00;;;;;;;;;;5014217;28;20510;-71
2023/05/01 06:50:03;;;;;;;7.83;5.53;;;;;;;;;;5014390;28;20448;-71
2023/05/01 06:52:30;;;;;;;8.00;5.37;;;;;;;;;;5014586;28;20484;-70
2023/05/01 06:54:57;;;;;;;11.57;5.40;;;;;;;;;;5014111;28;21066;-71
2023/05/01 06:57:26;;;;;;;6.40;5.17;;;;;;;;;;5014241;28;20451;-71
2023/05/01 06:59:53;;;;;;;9.67;5.97;;;;;;;;;;5013417;28;20537;-71
2023/05/01 07:02:20;;;;;;;8.60;5.47;;;;;;;;;;5013836;28;20453;-71
2023/05/01 07:04:48;;;;;;;7.63;6.17;;;;;;;;;;5014025;28;20974;-71
2023/05/01 07:07:15;;;;;;;8.57;5.10;;;;;;;;;;5014275;28;20441;-71
2023/05/01 07:09:42;;;;;;;7.07;5.00;;;;;;;;;;5014230;28;20457;-71
2023/05/01 07:12:09;;;;;;;8.93;4.80;;;;;;;;;;5014383;28;20454;-71
2023/05/01 07:14:38;;;;;;;7.27;5.37;;;;;;;;;;5014268;28;20473;-71
2023/05/01 07:17:05;;;;;;;7.67;5.40;;;;;;;;;;5013210;28;20444;-71
2023/05/01 07:19:32;;;;;;;12.70;5.17;;;;;;;;;;5013330;28;20453;-71
2023/05/01 07:22:00;;;;;;;5.63;5.03;;;;;;;;;;5013680;28;20560;-71
2023/05/01 07:24:27;;;;;;;7.27;5.93;;;;;;;;;;5014039;28;20456;-71
2023/05/01 07:26:55;;;;;;;8.17;5.27;;;;;;;;;;5013698;28;20500;-71
2023/05/01 07:29:22;;;;;;;6.70;5.93;;;;;;;;;;5013842;28;20457;-71
2023/05/01 07:31:51;;;;;;;7.13;4.97;;;;;;;;;;5014232;28;20440;-71
2023/05/01 07:34:18;;;;;;;5.50;5.00;;;;;;;;;;5013749;28;20481;-71
2023/05/01 07:36:45;;;;;;;5.60;4.07;;;;;;;;;;5013806;28;20453;-71
2023/05/01 07:39:13;;;;;;;4.73;4.30;;;;;;;;;;5012732;28;20476;-72
2023/05/01 07:41:41;;;;;;;6.23;5.33;;;;;;;;;;5013174;28;20524;-71
2023/05/01 07:44:08;;;;;;;7.37;5.60;;;;;;;;;;5013750;28;20529;-71
2023/05/01 07:46:35;;;;;;;5.33;4.83;;;;;;;;;;5013570;28;20540;-71
2023/05/01 07:49:04;;;;;;;6.83;4.77;;;;;;;;;;5013566;28;20478;-71
2023/05/01 07:51:32;;;;;;;8.13;5.10;;;;;;;;;;5014030;28;20442;-71
2023/05/01 07:54:02;;;;;;;10.20;5.13;;;;;;;;;;5013231;28;20483;-71
2023/05/01 07:56:29;;;;;;;5.20;4.67;;;;;;;;;;5013590;28;20430;-71
2023/05/01 07:58:57;;;;;;;6.10;5.00;;;;;;;;;;5012516;28;20445;-72
2023/05/01 08:01:24;;;;;;;8.20;4.87;;;;;;;;;;5012860;28;20483;-71
2023/05/01 08:03:51;;;;;;;6.00;4.17;;;;;;;;;;5013428;28;20990;-71
2023/05/01 08:06:20;;;;;;;7.20;4.73;;;;;;;;;;5013772;28;20449;-71
2023/05/01 08:08:47;;;;;;;4.97;4.47;;;;;;;;;;5012963;28;20454;-71
2023/05/01 08:11:15;;;;;;;5.20;4.70;;;;;;;;;;5013842;28;20947;-71
2023/05/01 08:13:42;;;;;;;8.00;5.50;;;;;;;;;;5013591;28;20888;-71
2023/05/01 08:16:09;;;;;;;6.57;5.00;;;;;;;;;;5013700;28;20468;-71
2023/05/01 08:18:36;;;;;;;4.87;4.20;;;;;;;;;;5012730;28;20449;-71
2023/05/01 08:21:04;;;;;;;4.80;4.30;;;;;;;;;;5012774;28;20446;-71
2023/05/01 08:23:32;;;;;;;5.30;4.40;;;;;;;;;;5013301;28;20457;-71
2023/05/01 08:25:59;;;;;;;13.07;6.90;;;;;;;;;;5012954;28;20456;-71
2023/05/01 08:28:27;;;;;;;10.93;4.87;;;;;;;;;;5012856;28;20449;-71
2023/05/01 08:30:54;;;;;;;5.60;4.03;;;;;;;;;;5013224;28;20538;-71
2023/05/01 08:33:21;;;;;;;6.10;4.17;;;;;;;;;;5013209;28;20465;-71
2023/05/01 08:35:50;;;;;;;8.23;4.90;;;;;;;;;;5013408;28;20570;-71
2023/05/01 08:38:17;;;;;;;6.80;5.50;;;;;;;;;;5013268;28;20494;-71
2023/05/01 08:40:50;;;;;;;4.83;4.10;;;;;;;;;;5012874;28;20466;-71
2023/05/01 08:43:18;;;;;;;4.40;4.00;;;;;;;;;;5013101;28;20946;-71
2023/05/01 08:45:47;;;;;;;10.10;4.80;;;;;;;;;;5013135;28;20882;-71
2023/05/01 08:48:17;;;;;;;6.00;4.80;;;;;;;;;;5013060;28;20447;-71
2023/05/01 08:50:46;;;;;;;6.53;4.20;;;;;;;;;;5013321;28;20989;-71
2023/05/01 08:53:14;;;;;;;4.60;4.03;;;;;;;;;;5014871;28;20456;-72
2023/05/01 08:55:44;;;;;;;5.80;4.37;;;;;;;;;;5016360;28;20481;-71
2023/05/01 08:58:13;;;;;;;7.30;4.40;;;;;;;;;;5017276;28;20446;-71
2023/05/01 09:00:41;;;;;;;5.07;4.13;;;;;;;;;;5016420;28;20486;-71
2023/05/01 09:03:10;;;;;;;5.40;4.40;;;;;;;;;;5016672;28;20442;-70
2023/05/01 09:05:37;;;;;;;6.10;4.23;;;;;;;;;;5016243;28;20491;-71
2023/05/01 09:08:04;;;;;;;4.30;3.90;;;;;;;;;;5016656;28;20831;-71
2023/05/01 09:10:33;;;;;;;5.33;4.83;;;;;;;;;;5016060;28;20461;-71
2023/05/01 09:13:01;;;;;;;4.33;3.90;;;;;;;;;;5016435;28;20510;-71
2023/05/01 09:15:30;;;;;;;4.80;4.03;;;;;;;;;;5016332;28;20485;-71
2023/05/01 09:17:57;;;;;;;3.87;3.57;;;;;;;;;;5016619;28;20454;-71
2023/05/01 09:20:25;;;;;;;5.60;4.37;;;;;;;;;;5015830;28;20494;-70
2023/05/01 09:22:52;;;;;;;4.73;4.00;;;;;;;;;;5016867;28;20829;-71
2023/05/01 09:25:19;;;;;;;6.00;4.97;;;;;;;;;;5016183;28;20801;-71
2023/05/01 09:27:47;;;;;;;4.73;4.23;;;;;;;;;;5014889;28;20455;-71
2023/05/01 09:30:29;;;;;;;6.13;5.33;;;;;;;;;;5015123;28;20968;-71
2023/05/01 09:33:05;;;;;;;4.87;4.37;;;;;;;;;;5015927;28;20455;-71
2023/05/01 09:35:33;;;;;;;6.53;4.00;;;;;;;;;;5015635;28;20466;-70
2023/05/01 09:38:00;;;;;;;8.23;3.33;;;;;;;;;;5015567;28;20608;-71
2023/05/01 09:40:28;;;;;;;6.33;3.90;;;;;;;;;;5016048;28;20786;-71
2023/05/01 09:42:55;;;;;;;4.73;3.57;;;;;;;;;;5015894;28;20481;-71
2023/05/01 09:45:25;;;;;;;6.90;4.40;;;;;;;;;;5015396;28;20954;-71
2023/05/01 09:47:52;;;;;;;4.13;3.80;;;;;;;;;;5015075;28;20451;-71
2023/05/01 09:50:34;;;;;;;8.60;4.17;;;;;;;;;;5014713;28;20456;-73
2023/05/01 09:53:03;;;;;;;6.00;5.10;;;;;;;;;;5015541;28;20471;-71
2023/05/01 09:55:30;;;;;;;5.47;3.60;;;;;;;;;;5015394;28;20486;-71
2023/05/01 09:57:57;;;;;;;5.23;3.93;;;;;;;;;;5010519;28;20483;-71
2023/05/01 10:00:25;;;;;;;7.07;3.77;;;;;;;;;;4995481;28;20972;-71
2023/05/01 10:02:53;;;;;;;5.20;3.87;;;;;;;;;;4995976;28;20867;-71
2023/05/01 10:05:21;;;;;;;4.67;3.67;;;;;;;;;;4994327;28;20548;-71
2023/05/01 10:08:01;;;;;;;4.87;3.60;;;;;;;;;;4995354;28;20456;-71
2023/05/01 10:10:28;;;;;;;3.53;3.23;;;;;;;;;;4994832;28;20549;-71
2023/05/01 10:12:55;;;;;;;7.10;5.07;;;;;;;;;;4995624;28;20454;-71
2023/05/01 10:15:22;;;;;;;7.43;3.97;;;;;;;;;;4995500;28;20478;-71
2023/05/01 10:17:51;;;;;;;4.00;3.70;;;;;;;;;;4995529;28;20446;-71
2023/05/01 10:20:18;;;;;;;6.60;3.80;;;;;;;;;;4995897;28;20796;-71
2023/05/01 10:22:47;;;;;;;8.23;4.40;;;;;;;;;;4995230;28;20487;-71
2023/05/01 10:25:16;;;;;;;7.90;4.20;;;;;;;;;;4995565;28;20801;-71
2023/05/01 10:27:43;;;;;;;4.70;3.67;;;;;;;;;;4994780;28;20452;-72
2023/05/01 10:30:11;;;;;;;4.20;3.80;;;;;;;;;;4994453;28;20462;-71
2023/05/01 10:32:41;;;;;;;6.37;4.60;;;;;;;;;;4995029;28;20470;-71
2023/05/01 10:35:11;;;;;;;4.37;3.97;;;;;;;;;;4995095;28;20523;-71
2023/05/01 10:37:40;;;;;;;4.53;3.57;;;;;;;;;;4995189;28;20510;-71
2023/05/01 10:40:26;;;;;;;4.63;4.10;;;;;;;;;;4995228;28;20446;-71
2023/05/01 10:43:11;;;;;;;6.23;3.77;;;;;;;;;;4995231;28;20439;-71
2023/05/01 10:45:40;;;;;;;4.90;3.70;;;;;;;;;;4994967;28;20447;-71
2023/05/01 10:48:08;;;;;;;6.33;4.03;;;;;;;;;;4994480;28;20443;-71
2023/05/01 10:50:35;;;;;;;6.83;4.00;;;;;;;;;;4993886;28;20448;-71
2023/05/01 10:53:17;;;;;;;5.30;4.00;;;;;;;;;;4994781;28;20450;-70
2023/05/01 10:55:45;;;;;;;4.97;2.87;;;;;;;;;;4994624;28;20487;-71
2023/05/01 10:58:12;;;;;;;3.10;2.90;;;;;;;;;;4994612;28;20988;-71
2023/05/01 11:00:41;;;;;;;4.17;3.20;;;;;;;;;;4994750;28;20448;-69
2023/05/01 11:03:27;;;;;;;5.53;2.97;;;;;;;;;;4994959;28;20538;-70
2023/05/01 11:06:07;;;;;;;10.73;3.50;;;;;;;;;;4994472;28;20961;-69
2023/05/01 11:08:35;;;;;;;5.60;3.50;;;;;;;;;;4994461;28;20448;-71
2023/05/01 11:11:21;;;;;;;7.20;3.40;;;;;;;;;;4993689;28;20498;-70
2023/05/01 11:13:58;;;;;;;3.00;2.60;;;;;;;;;;4994084;28;20976;-70
2023/05/01 11:16:42;;;;;;;2.77;2.57;;;;;;;;;;4993742;28;20483;-69
2023/05/01 11:19:11;;;;;;;6.30;3.50;;;;;;;;;;4994364;28;20447;-69
2023/05/01 11:21:39;;;;;;;4.33;2.60;;;;;;;;;;4994221;28;20447;-72
2023/05/01 11:24:07;;;;;;;7.90;2.20;;;;;;;;;;4994391;28;20453;-70
2023/05/01 11:26:38;;;;;;;3.13;1.90;;;;;;;;;;4993821;28;20455;-71
2023/05/01 11:29:06;;;;;;;5.60;2.33;;;;;;;;;;4993663;28;20963;-71
2023/05/01 11:31:33;;;;;;;2.33;1.97;;;;;;;;;;4994064;28;20448;-70
2023/05/01 11:34:02;;;;;;;2.30;1.57;;;;;;;;;;4994686;28;20436;-70
2023/05/01 11:36:30;;;;;;;3.03;2.40;;;;;;;;;;4994046;28;20480;-71
2023/05/01 11:38:58;;;;;;;5.53;3.50;;;;;;;;;;4994148;28;20835;-69
2023/05/01 11:41:26;;;;;;;4.83;3.83;;;;;;;;;;4994345;28;20484;-71
2023/05/01 11:43:54;;;;;;;5.20;4.73;;;;;;;;;;4994130;28;20454;-71
2023/05/01 11:46:26;;;;;;;4.40;3.40;;;;;;;;;;4993727;28;20455;-71
2023/05/01 11:48:53;;;;;;;3.27;2.70;;;;;;;;;;4994029;28;20854;-71
2023/05/01 11:51:22;;;;;;;3.60;2.80;;;;;;;;;;4994045;28;20533;-71
2023/05/01 11:53:59;;;;;;;2.30;2.10;;;;;;;;;;4993972;28;20880;-71
2023/05/01 11:56:26;;;;;;;3.43;3.10;;;;;;;;;;4994027;28;20487;-71
2023/05/01 11:58:54;;;;;;;3.80;3.10;;;;;;;;;;4993684;28;20453;-71
2023/05/01 12:01:22;;;;;;;7.23;2.73;;;;;;;;;;4993490;28;20436;-70
2023/05/01 12:03:49;;;;;;;7.57;6.77;;;;;;;;;;4993807;28;20442;-71
2023/05/01 12:06:16;;;;;;;5.30;2.43;;;;;;;;;;4993444;28;20487;-71
2023/05/01 12:08:45;;;;;;;6.27;2.23;;;;;;;;;;4993448;28;20462;-71
2023/05/01 12:11:13;;;;;;;3.93;2.63;;;;;;;;;;4993534;28;20499;-71
2023/05/01 12:13:41;;;;;;;3.57;2.50;;;;;;;;;;4993809;28;20527;-71
2023/05/01 12:16:08;;;;;;;3.00;2.80;;;;;;;;;;4993776;28;20506;-71
2023/05/01 12:18:35;;;;;;;2.87;2.67;;;;;;;;;;4994130;28;20867;-71
2023/05/01 12:21:03;;;;;;;2.87;2.57;;;;;;;;;;4993792;28;20789;-70
2023/05/01 12:23:34;;;;;;;4.30;2.87;;;;;;;;;;4993468;28;20483;-69
2023/05/01 12:26:03;;;;;;;2.63;2.30;;;;;;;;;;4993892;28;20472;-69
2023/05/01 12:28:30;;;;;;;2.37;2.27;;;;;;;;;;4995768;28;20440;-70
2023/05/01 12:31:01;;;;;;;2.23;2.00;;;;;;;;;;4997474;28;20451;-70
2023/05/01 12:33:29;;;;;;;3.27;2.60;;;;;;;;;;4997045;28;20429;-70
2023/05/01 12:36:09;;;;;;;3.43;2.20;;;;;;;;;;4996683;28;20950;-70
2023/05/01 12:38:36;;;;;;;2.43;1.80;;;;;;;;;;4997625;28;20803;-69
2023/05/01 12:41:07;;;;;;;2.57;2.37;;;;;;;;;;4996727;28;20483;-70
2023/05/01 12:43:35;;;;;;;5.37;4.17;;;;;;;;;;5000211;28;20463;-70
2023/05/01 12:46:03;;;;;;;5.83;5.00;;;;;;;;;;5015383;28;20443;-71
2023/05/01 12:48:31;;;;;;;16.73;13.70;;;;;;;;;;5015725;28;20455;-70
2023/05/01 12:50:59;;;;;;;3.90;3.37;;;;;;;;;;5015750;28;20788;-70
2023/05/01 12:53:27;;;;;;;4.30;2.57;;;;;;;;;;5016037;28;20445;-70
2023/05/01 12:55:55;;;;;;;5.70;5.20;;;;;;;;;;5015337;28;20490;-70
2023/05/01 12:58:24;;;;;;;6.63;5.77;;;;;;;;;;5015815;28;20447;-70
2023/05/01 13:00:52;;;;;;;17.50;11.60;;;;;;;;;;5015992;28;20840;-69
2023/05/01 13:03:23;;;;;;;6.70;2.97;;;;;;;;;;5016181;28;20844;-70
2023/05/01 13:05:51;;;;;;;2.87;2.57;;;;;;;;;;5016077;28;20527;-69
2023/05/01 13:08:23;;;;;;;2.50;2.13;;;;;;;;;;5016215;28;20447;-70
2023/05/01 13:10:50;;;;;;;2.30;2.10;;;;;;;;;;5016402;28;20436;-69
2023/05/01 13:13:25;;;;;;;4.63;3.40;;;;;;;;;;5013049;28;20448;-70
2023/05/01 13:15:53;;;;;;;3.10;2.67;;;;;;;;;;4995724;28;20472;-70
2023/05/01 13:18:20;;;;;;;4.13;2.50;;;;;;;;;;4996089;28;20535;-70
2023/05/01 13:20:47;;;;;;;2.33;2.13;;;;;;;;;;4996435;28;20491;-68
2023/05/01 13:23:15;;;;;;;2.60;2.40;;;;;;;;;;4996188;28;20924;-70
2023/05/01 13:25:42;;;;;;;2.13;2.00;;;;;;;;;;4996043;28;20456;-70
2023/05/01 13:28:10;;;;;;;2.33;2.00;;;;;;;;;;4995533;28;20455;-70
2023/05/01 13:30:39;;;;;;;2.60;2.17;;;;;;;;;;4996160;28;20543;-70
2023/05/01 13:33:07;;;;;;;2.13;1.93;;;;;;;;;;4996060;28;20506;-70
2023/05/01 13:35:34;;;;;;;2.17;2.07;;;;;;;;;;4995375;28;20519;-70
2023/05/01 13:38:04;;;;;;;2.47;2.27;;;;;;;;;;4995282;28;20476;-70
2023/05/01 13:40:34;;;;;;;2.63;2.43;;;;;;;;;;4995693;28;20443;-70
2023/05/01 13:43:02;;;;;;;2.10;1.90;;;;;;;;;;4995953;28;20428;-70
2023/05/01 13:45:30;;;;;;;4.30;2.57;;;;;;;;;;4995818;28;20452;-70
2023/05/01 13:47:58;;;;;;;2.47;2.27;;;;;;;;;;4995254;28;20956;-70
2023/05/01 13:50:26;;;;;;;4.63;2.63;;;;;;;;;;4995795;28;20547;-70
2023/05/01 13:52:53;;;;;;;2.50;2.30;;;;;;;;;;4995437;28;20448;-70
2023/05/01 13:55:23;;;;;;;4.63;2.53;;;;;;;;;;4994658;28;20644;-70
2023/05/01 13:57:50;;;;;;;3.47;2.70;;;;;;;;;;4994757;28;20917;-70
2023/05/01 14:00:17;;;;;;;3.30;2.90;;;;;;;;;;4995632;28;20444;-70
2023/05/01 14:02:47;;;;;;;4.40;3.23;;;;;;;;;;4995549;28;20535;-70
2023/05/01 14:05:15;;;;;;;3.50;2.70;;;;;;;;;;4995580;28;20531;-70
2023/05/01 14:07:46;;;;;;;2.90;2.50;;;;;;;;;;4994717;28;20488;-70
2023/05/01 14:10:13;;;;;;;2.90;2.70;;;;;;;;;;4998273;28;20526;-68
2023/05/01 14:12:40;;;;;;;3.13;2.83;;;;;;;;;;5004250;28;20469;-69
2023/05/01 14:15:10;;;;;;;3.70;3.40;;;;;;;;;;4994962;28;20557;-70
2023/05/01 14:17:37;;;;;;;3.30;3.00;;;;;;;;;;4994493;28;20488;-69
2023/05/01 14:20:05;;;;;;;2.77;2.57;;;;;;;;;;4994837;28;20506;-69
2023/05/01 14:22:36;;;;;;;3.40;3.20;;;;;;;;;;5009130;28;20446;-69
2023/05/01 14:25:06;;;;;;;3.37;2.97;;;;;;;;;;5014760;28;20420;-69
2023/05/01 14:27:33;;;;;;;4.73;4.27;;;;;;;;;;5014404;28;20542;-69
2023/05/01 14:30:00;;;;;;;4.20;3.00;;;;;;;;;;5014737;28;20439;-69
2023/05/01 14:32:28;;;;;;;4.37;3.47;;;;;;;;;;5014712;28;20455;-71
2023/05/01 14:34:55;;;;;;;3.30;3.00;;;;;;;;;;5014101;28;20860;-71
2023/05/01 14:37:23;;;;;;;3.50;3.20;;;;;;;;;;5013545;28;20821;-71
2023/05/01 14:39:51;;;;;;;4.77;3.10;;;;;;;;;;5014388;28;20485;-70
2023/05/01 14:42:18;;;;;;;4.03;3.70;;;;;;;;;;5014387;28;20443;-70
2023/05/01 14:44:46;;;;;;;5.97;3.30;;;;;;;;;;4999218;28;20487;-70
2023/05/01 14:47:15;;;;;;;3.70;3.17;;;;;;;;;;4994219;28;20458;-71
2023/05/01 14:49:42;;;;;;;3.50;3.20;;;;;;;;;;4993994;28;20945;-70